sensor_id;sensor_type;location;lat;lon;timestamp;temperature;humidity
11087;DHT22;5597;47.588;9.642;2023-07-29T00:01:19;18.60;99.90
11087;DHT22;5597;47.588;9.642;2023-07-29T00:03:45;18.60;99.90
11087;DHT22;5597;47.588;9.642;2023-07-29T00:06:11;18.60;99.90
11087;DHT22;5597;47.588;9.642;2023-07-29T00:08:36;18.60;99.90
11087;DHT22;5597;47.588;9.642;2023-07-29T00:11:02;18.70;99.90
11087;DHT22;5597;47.588;9.642;2023-07-29T00:13:28;18.70;99.90
11087;DHT22;5597;47.588;9.642;2023-07-29T00:15:54;18.70;99.90
11087;DHT22;5597;47.588;9.642;2023-07-29T00:18:21;18.70;99.90
11087;DHT22;5597;47.588;9.642;2023-07-29T00:20:47;18.70;99.90
11087;DHT22;5597;47.588;9.642;2023-07-29T00:23:12;18.70;99.90
11087;DHT22;5597;47.588;9.642;2023-07-29T00:25:38;18.70;99.90
11087;DHT22;5597;47.588;9.642;2023-07-29T00:28:04;18.60;99.90
11087;DHT22;5597;47.588;9.642;2023-07-29T00:30:29;18.60;99.90
11087;DHT22;5597;47.588;9.642;2023-07-29T00:32:55;18.60;99.90
11087;DHT22;5597;47.588;9.642;2023-07-29T00:35:20;18.60;99.90
11087;DHT22;5597;47.588;9.642;2023-07-29T00:37:46;18.60;99.90
11087;DHT22;5597;47.588;9.642;2023-07-29T00:40:20;18.50;99.90
11087;DHT22;5597;47.588;9.642;2023-07-29T00:42:46;18.50;99.90
11087;DHT22;5597;47.588;9.642;2023-07-29T00:45:11;18.50;99.90
11087;DHT22;5597;47.588;9.642;2023-07-29T00:47:38;18.40;99.90
11087;DHT22;5597;47.588;9.642;2023-07-29T00:50:05;18.40;99.90
11087;DHT22;5597;47.588;9.642;2023-07-29T00:52:31;18.40;99.90
11087;DHT22;5597;47.588;9.642;2023-07-29T00:54:57;18.30;99.90
11087;DHT22;5597;47.588;9.642;2023-07-29T00:57:23;18.30;99.90
11087;DHT22;5597;47.588;9.642;2023-07-29T00:59:51;18.30;99.90
11087;DHT22;5597;47.588;9.642;2023-07-29T01:02:16;18.30;99.90
11087;DHT22;5597;47.588;9.642;2023-07-29T01:04:42;18.30;99.90
11087;DHT22;5597;47.588;9.642;2023-07-29T01:07:23;18.30;99.90
11087;DHT22;5597;47.588;9.642;2023-07-29T01:10:04;18.30;99.90
11087;DHT22;5597;47.588;9.642;2023-07-29T01:12:55;18.30;99.90
11087;DHT22;5597;47.588;9.642;2023-07-29T01:18:20;18.30;99.90
11087;DHT22;5597;47.588;9.642;2023-07-29T01:20:47;18.20;99.90
11087;DHT22;5597;47.588;9.642;2023-07-29T01:23:15;18.20;99.90
11087;DHT22;5597;47.588;9.642;2023-07-29T01:25:41;18.20;99.90
11087;DHT22;5597;47.588;9.642;2023-07-29T01:28:06;18.20;99.90
11087;DHT22;5597;47.588;9.642;2023-07-29T01:30:40;18.20;99.90
11087;DHT22;5597;47.588;9.642;2023-07-29T01:33:30;18.10;99.90
11087;DHT22;5597;47.588;9.642;2023-07-29T01:36:01;18.10;99.90
11087;DHT22;5597;47.588;9.642;2023-07-29T01:38:29;18.10;99.90
11087;DHT22;5597;47.588;9.642;2023-07-29T01:41:01;18.10;99.90
11087;DHT22;5597;47.588;9.642;2023-07-29T01:43:28;18.10;99.90
11087;DHT22;5597;47.588;9.642;2023-07-29T01:45:54;18.10;99.90
11087;DHT22;5597;47.588;9.642;2023-07-29T01:48:20;18.10;99.90
11087;DHT22;5597;47.588;9.642;2023-07-29T01:50:45;18.10;99.90
11087;DHT22;5597;47.588;9.642;2023-07-29T01:53:11;18.10;99.90
11087;DHT22;5597;47.588;9.642;2023-07-29T01:55:36;18.10;99.90
11087;DHT22;5597;47.588;9.642;2023-07-29T01:58:02;18.10;99.90
11087;DHT22;5597;47.588;9.642;2023-07-29T02:00:27;18.10;99.90
11087;DHT22;5597;47.588;9.642;2023-07-29T02:02:53;18.10;99.90
11087;DHT22;5597;47.588;9.642;2023-07-29T02:05:18;18.10;99.90
11087;DHT22;5597;47.588;9.642;2023-07-29T02:07:44;18.10;99.90
11087;DHT22;5597;47.588;9.642;2023-07-29T02:10:09;18.10;99.90
11087;DHT22;5597;47.588;9.642;2023-07-29T02:12:35;18.00;99.90
11087;DHT22;5597;47.588;9.642;2023-07-29T02:15:01;18.00;99.90
11087;DHT22;5597;47.588;9.642;2023-07-29T02:17:26;18.00;99.90
11087;DHT22;5597;47.588;9.642;2023-07-29T02:19:52;18.00;99.90
11087;DHT22;5597;47.588;9.642;2023-07-29T02:22:18;18.00;99.90
11087;DHT22;5597;47.588;9.642;2023-07-29T02:24:44;17.90;99.90
11087;DHT22;5597;47.588;9.642;2023-07-29T02:27:10;17.90;99.90
11087;DHT22;5597;47.588;9.642;2023-07-29T02:29:35;17.90;99.90
11087;DHT22;5597;47.588;9.642;2023-07-29T02:32:02;17.90;99.90
11087;DHT22;5597;47.588;9.642;2023-07-29T02:34:28;17.90;99.90
11087;DHT22;5597;47.588;9.642;2023-07-29T02:36:54;17.90;99.90
11087;DHT22;5597;47.588;9.642;2023-07-29T02:39:19;17.90;99.90
11087;DHT22;5597;47.588;9.642;2023-07-29T02:41:45;17.90;99.90
11087;DHT22;5597;47.588;9.642;2023-07-29T02:44:10;17.90;99.90
11087;DHT22;5597;47.588;9.642;2023-07-29T02:46:36;17.90;99.90
11087;DHT22;5597;47.588;9.642;2023-07-29T02:49:02;17.90;99.90
11087;DHT22;5597;47.588;9.642;2023-07-29T02:51:29;17.90;99.90
11087;DHT22;5597;47.588;9.642;2023-07-29T02:53:55;17.90;99.90
11087;DHT22;5597;47.588;9.642;2023-07-29T02:56:20;17.90;99.90
11087;DHT22;5597;47.588;9.642;2023-07-29T02:58:46;17.90;99.90
11087;DHT22;5597;47.588;9.642;2023-07-29T03:01:11;17.90;99.90
11087;DHT22;5597;47.588;9.642;2023-07-29T03:03:37;17.90;99.90
11087;DHT22;5597;47.588;9.642;2023-07-29T03:06:07;17.90;99.90
11087;DHT22;5597;47.588;9.642;2023-07-29T03:08:33;17.90;99.90
11087;DHT22;5597;47.588;9.642;2023-07-29T03:11:05;17.90;99.90
11087;DHT22;5597;47.588;9.642;2023-07-29T03:13:31;17.90;99.90
11087;DHT22;5597;47.588;9.642;2023-07-29T03:16:07;17.90;99.90
11087;DHT22;5597;47.588;9.642;2023-07-29T03:18:32;18.00;99.90
11087;DHT22;5597;47.588;9.642;2023-07-29T03:20:58;18.00;99.90
11087;DHT22;5597;47.588;9.642;2023-07-29T03:23:24;18.00;99.90
11087;DHT22;5597;47.588;9.642;2023-07-29T03:25:50;18.00;99.90
11087;DHT22;5597;47.588;9.642;2023-07-29T03:28:22;18.00;99.90
11087;DHT22;5597;47.588;9.642;2023-07-29T03:30:48;18.00;99.90
11087;DHT22;5597;47.588;9.642;2023-07-29T03:33:14;18.00;99.90
11087;DHT22;5597;47.588;9.642;2023-07-29T03:35:39;18.00;99.90
11087;DHT22;5597;47.588;9.642;2023-07-29T03:38:05;18.00;99.90
11087;DHT22;5597;47.588;9.642;2023-07-29T03:40:30;17.90;99.90
11087;DHT22;5597;47.588;9.642;2023-07-29T03:42:56;17.90;99.90
11087;DHT22;5597;47.588;9.642;2023-07-29T03:45:21;17.90;99.90
11087;DHT22;5597;47.588;9.642;2023-07-29T03:47:47;17.90;99.90
11087;DHT22;5597;47.588;9.642;2023-07-29T03:50:12;17.90;99.90
11087;DHT22;5597;47.588;9.642;2023-07-29T03:52:38;17.90;99.90
11087;DHT22;5597;47.588;9.642;2023-07-29T03:55:04;17.80;99.90
11087;DHT22;5597;47.588;9.642;2023-07-29T03:57:29;17.80;99.90
11087;DHT22;5597;47.588;9.642;2023-07-29T03:59:55;17.80;99.90
11087;DHT22;5597;47.588;9.642;2023-07-29T04:02:21;17.80;99.90
11087;DHT22;5597;47.588;9.642;2023-07-29T04:04:46;17.80;99.90
11087;DHT22;5597;47.588;9.642;2023-07-29T04:07:13;17.90;99.90
11087;DHT22;5597;47.588;9.642;2023-07-29T04:09:39;17.90;99.90
11087;DHT22;5597;47.588;9.642;2023-07-29T04:12:05;17.90;99.90
11087;DHT22;5597;47.588;9.642;2023-07-29T04:14:31;17.90;99.90
11087;DHT22;5597;47.588;9.642;2023-07-29T04:16:56;17.90;99.90
11087;DHT22;5597;47.588;9.642;2023-07-29T04:19:22;17.90;99.90
11087;DHT22;5597;47.588;9.642;2023-07-29T04:21:47;17.90;99.90
11087;DHT22;5597;47.588;9.642;2023-07-29T04:24:13;17.90;99.90
11087;DHT22;5597;47.588;9.642;2023-07-29T04:26:38;17.90;99.90
11087;DHT22;5597;47.588;9.642;2023-07-29T04:29:05;17.90;99.90
11087;DHT22;5597;47.588;9.642;2023-07-29T04:31:30;17.90;99.90
11087;DHT22;5597;47.588;9.642;2023-07-29T04:33:56;17.90;99.90
11087;DHT22;5597;47.588;9.642;2023-07-29T04:36:21;17.90;99.90
11087;DHT22;5597;47.588;9.642;2023-07-29T04:38:47;17.90;99.90
11087;DHT22;5597;47.588;9.642;2023-07-29T04:41:12;18.00;99.90
11087;DHT22;5597;47.588;9.642;2023-07-29T04:43:38;18.00;99.90
11087;DHT22;5597;47.588;9.642;2023-07-29T04:46:06;18.00;99.90
11087;DHT22;5597;47.588;9.642;2023-07-29T04:48:33;18.00;99.90
11087;DHT22;5597;47.588;9.642;2023-07-29T04:50:58;17.90;99.90
11087;DHT22;5597;47.588;9.642;2023-07-29T04:53:24;17.90;99.90
11087;DHT22;5597;47.588;9.642;2023-07-29T04:55:49;17.90;99.90
11087;DHT22;5597;47.588;9.642;2023-07-29T04:58:15;17.90;99.90
11087;DHT22;5597;47.588;9.642;2023-07-29T05:00:40;17.90;99.90
11087;DHT22;5597;47.588;9.642;2023-07-29T05:03:06;17.90;99.90
11087;DHT22;5597;47.588;9.642;2023-07-29T05:05:32;17.90;99.90
11087;DHT22;5597;47.588;9.642;2023-07-29T05:07:57;17.90;99.90
11087;DHT22;5597;47.588;9.642;2023-07-29T05:10:23;17.90;99.90
11087;DHT22;5597;47.588;9.642;2023-07-29T05:12:49;17.90;99.90
11087;DHT22;5597;47.588;9.642;2023-07-29T05:15:14;17.90;99.90
11087;DHT22;5597;47.588;9.642;2023-07-29T05:17:40;18.00;99.90
11087;DHT22;5597;47.588;9.642;2023-07-29T05:20:06;18.00;99.90
11087;DHT22;5597;47.588;9.642;2023-07-29T05:22:32;18.00;99.90
11087;DHT22;5597;47.588;9.642;2023-07-29T05:24:57;18.00;99.90
11087;DHT22;5597;47.588;9.642;2023-07-29T05:27:23;18.00;99.90
11087;DHT22;5597;47.588;9.642;2023-07-29T05:29:49;18.00;99.90
11087;DHT22;5597;47.588;9.642;2023-07-29T05:32:14;18.00;99.90
11087;DHT22;5597;47.588;9.642;2023-07-29T05:34:40;18.10;99.90
11087;DHT22;5597;47.588;9.642;2023-07-29T05:37:05;18.10;99.90
11087;DHT22;5597;47.588;9.642;2023-07-29T05:39:31;18.10;99.90
11087;DHT22;5597;47.588;9.642;2023-07-29T05:41:57;18.10;99.90
11087;DHT22;5597;47.588;9.642;2023-07-29T05:44:23;18.10;99.90
11087;DHT22;5597;47.588;9.642;2023-07-29T05:46:48;18.10;99.90
11087;DHT22;5597;47.588;9.642;2023-07-29T05:49:14;18.10;99.90
11087;DHT22;5597;47.588;9.642;2023-07-29T05:51:39;18.10;99.90
11087;DHT22;5597;47.588;9.642;2023-07-29T05:54:05;18.20;99.90
11087;DHT22;5597;47.588;9.642;2023-07-29T05:56:31;18.30;99.90
11087;DHT22;5597;47.588;9.642;2023-07-29T05:58:57;18.30;99.90
11087;DHT22;5597;47.588;9.642;2023-07-29T06:01:22;18.40;99.90
11087;DHT22;5597;47.588;9.642;2023-07-29T06:03:48;18.50;99.90
11087;DHT22;5597;47.588;9.642;2023-07-29T06:06:14;18.60;99.90
11087;DHT22;5597;47.588;9.642;2023-07-29T06:08:39;18.80;99.90
11087;DHT22;5597;47.588;9.642;2023-07-29T06:11:05;18.90;99.90
11087;DHT22;5597;47.588;9.642;2023-07-29T06:13:32;19.00;99.90
11087;DHT22;5597;47.588;9.642;2023-07-29T06:15:57;19.00;99.90
11087;DHT22;5597;47.588;9.642;2023-07-29T06:18:24;19.00;99.90
11087;DHT22;5597;47.588;9.642;2023-07-29T06:20:50;19.10;99.90
11087;DHT22;5597;47.588;9.642;2023-07-29T06:23:16;19.00;99.90
11087;DHT22;5597;47.588;9.642;2023-07-29T06:25:42;19.00;99.90
11087;DHT22;5597;47.588;9.642;2023-07-29T06:28:09;19.00;99.90
11087;DHT22;5597;47.588;9.642;2023-07-29T06:30:34;19.00;99.90
11087;DHT22;5597;47.588;9.642;2023-07-29T06:33:00;19.00;99.90
11087;DHT22;5597;47.588;9.642;2023-07-29T06:35:25;19.00;99.90
11087;DHT22;5597;47.588;9.642;2023-07-29T06:37:51;19.00;99.90
11087;DHT22;5597;47.588;9.642;2023-07-29T06:40:17;19.10;99.90
11087;DHT22;5597;47.588;9.642;2023-07-29T06:42:42;19.20;99.90
11087;DHT22;5597;47.588;9.642;2023-07-29T06:45:08;19.30;99.90
11087;DHT22;5597;47.588;9.642;2023-07-29T06:47:34;19.50;99.90
11087;DHT22;5597;47.588;9.642;2023-07-29T06:49:59;19.60;99.90
11087;DHT22;5597;47.588;9.642;2023-07-29T06:52:25;19.90;99.90
11087;DHT22;5597;47.588;9.642;2023-07-29T06:54:51;20.10;99.90
11087;DHT22;5597;47.588;9.642;2023-07-29T06:57:16;20.30;99.90
11087;DHT22;5597;47.588;9.642;2023-07-29T06:59:42;20.40;99.90
11087;DHT22;5597;47.588;9.642;2023-07-29T07:02:08;20.40;99.90
11087;DHT22;5597;47.588;9.642;2023-07-29T07:04:33;20.40;99.90
11087;DHT22;5597;47.588;9.642;2023-07-29T07:06:59;20.40;99.90
11087;DHT22;5597;47.588;9.642;2023-07-29T07:09:24;20.40;99.90
11087;DHT22;5597;47.588;9.642;2023-07-29T07:11:50;20.50;99.90
11087;DHT22;5597;47.588;9.642;2023-07-29T07:14:15;20.60;99.90
11087;DHT22;5597;47.588;9.642;2023-07-29T07:16:41;20.80;99.90
11087;DHT22;5597;47.588;9.642;2023-07-29T07:19:06;20.90;99.90
11087;DHT22;5597;47.588;9.642;2023-07-29T07:21:32;21.10;99.90
11087;DHT22;5597;47.588;9.642;2023-07-29T07:24:00;21.20;99.90
11087;DHT22;5597;47.588;9.642;2023-07-29T07:26:26;21.30;99.90
11087;DHT22;5597;47.588;9.642;2023-07-29T07:28:52;21.50;99.90
11087;DHT22;5597;47.588;9.642;2023-07-29T07:31:17;21.80;99.90
11087;DHT22;5597;47.588;9.642;2023-07-29T07:33:43;21.90;99.90
11087;DHT22;5597;47.588;9.642;2023-07-29T07:36:08;22.10;99.90
11087;DHT22;5597;47.588;9.642;2023-07-29T07:38:34;22.00;99.90
11087;DHT22;5597;47.588;9.642;2023-07-29T07:40:59;22.10;99.90
11087;DHT22;5597;47.588;9.642;2023-07-29T07:43:25;22.10;99.90
11087;DHT22;5597;47.588;9.642;2023-07-29T07:45:51;21.90;99.90
11087;DHT22;5597;47.588;9.642;2023-07-29T07:48:22;21.80;99.90
11087;DHT22;5597;47.588;9.642;2023-07-29T07:50:48;21.60;99.90
11087;DHT22;5597;47.588;9.642;2023-07-29T07:53:13;21.50;99.90
11087;DHT22;5597;47.588;9.642;2023-07-29T07:55:39;21.50;99.90
11087;DHT22;5597;47.588;9.642;2023-07-29T07:58:05;21.50;99.90
11087;DHT22;5597;47.588;9.642;2023-07-29T08:00:30;21.50;99.90
11087;DHT22;5597;47.588;9.642;2023-07-29T08:02:56;21.40;99.90
11087;DHT22;5597;47.588;9.642;2023-07-29T08:05:21;21.40;99.90
11087;DHT22;5597;47.588;9.642;2023-07-29T08:07:47;21.40;99.90
11087;DHT22;5597;47.588;9.642;2023-07-29T08:10:12;21.50;99.90
11087;DHT22;5597;47.588;9.642;2023-07-29T08:12:38;21.60;99.90
11087;DHT22;5597;47.588;9.642;2023-07-29T08:15:03;21.80;99.90
11087;DHT22;5597;47.588;9.642;2023-07-29T08:17:29;22.10;99.90
11087;DHT22;5597;47.588;9.642;2023-07-29T08:19:54;22.30;99.90
11087;DHT22;5597;47.588;9.642;2023-07-29T08:22:20;22.40;99.90
11087;DHT22;5597;47.588;9.642;2023-07-29T08:24:46;22.40;99.90
11087;DHT22;5597;47.588;9.642;2023-07-29T08:27:11;22.40;99.90
11087;DHT22;5597;47.588;9.642;2023-07-29T08:29:37;22.50;99.90
11087;DHT22;5597;47.588;9.642;2023-07-29T08:32:02;22.50;99.90
11087;DHT22;5597;47.588;9.642;2023-07-29T08:34:28;22.60;99.90
11087;DHT22;5597;47.588;9.642;2023-07-29T08:36:54;22.70;99.90
11087;DHT22;5597;47.588;9.642;2023-07-29T08:39:19;23.00;99.90
11087;DHT22;5597;47.588;9.642;2023-07-29T08:42:07;23.20;99.90
11087;DHT22;5597;47.588;9.642;2023-07-29T08:44:42;23.50;99.90
11087;DHT22;5597;47.588;9.642;2023-07-29T08:47:08;23.60;99.90
11087;DHT22;5597;47.588;9.642;2023-07-29T08:49:34;23.80;99.90
11087;DHT22;5597;47.588;9.642;2023-07-29T08:52:01;23.90;99.90
11087;DHT22;5597;47.588;9.642;2023-07-29T08:54:27;24.00;99.90
11087;DHT22;5597;47.588;9.642;2023-07-29T08:56:53;24.00;99.90
11087;DHT22;5597;47.588;9.642;2023-07-29T08:59:19;24.10;99.90
11087;DHT22;5597;47.588;9.642;2023-07-29T09:01:46;24.20;99.90
11087;DHT22;5597;47.588;9.642;2023-07-29T09:04:12;24.20;99.90
11087;DHT22;5597;47.588;9.642;2023-07-29T09:06:39;24.30;99.90
11087;DHT22;5597;47.588;9.642;2023-07-29T09:09:05;24.40;99.90
11087;DHT22;5597;47.588;9.642;2023-07-29T09:11:33;24.50;99.90
11087;DHT22;5597;47.588;9.642;2023-07-29T09:13:58;24.50;99.90
11087;DHT22;5597;47.588;9.642;2023-07-29T09:16:24;24.60;99.90
11087;DHT22;5597;47.588;9.642;2023-07-29T09:18:51;24.70;99.90
11087;DHT22;5597;47.588;9.642;2023-07-29T09:21:17;24.90;99.90
11087;DHT22;5597;47.588;9.642;2023-07-29T09:23:47;25.10;99.90
11087;DHT22;5597;47.588;9.642;2023-07-29T09:26:13;25.30;99.90
11087;DHT22;5597;47.588;9.642;2023-07-29T09:28:39;25.30;99.90
11087;DHT22;5597;47.588;9.642;2023-07-29T09:31:05;25.30;99.90
11087;DHT22;5597;47.588;9.642;2023-07-29T09:33:35;25.40;99.90
11087;DHT22;5597;47.588;9.642;2023-07-29T09:36:09;25.40;99.90
11087;DHT22;5597;47.588;9.642;2023-07-29T09:38:35;25.50;99.90
11087;DHT22;5597;47.588;9.642;2023-07-29T09:41:01;25.80;99.90
11087;DHT22;5597;47.588;9.642;2023-07-29T09:43:34;26.10;99.90
11087;DHT22;5597;47.588;9.642;2023-07-29T09:46:01;26.40;99.90
11087;DHT22;5597;47.588;9.642;2023-07-29T09:48:27;26.60;99.90
11087;DHT22;5597;47.588;9.642;2023-07-29T09:50:54;26.70;99.90
11087;DHT22;5597;47.588;9.642;2023-07-29T09:53:20;27.00;99.90
11087;DHT22;5597;47.588;9.642;2023-07-29T09:55:47;27.30;99.90
11087;DHT22;5597;47.588;9.642;2023-07-29T09:58:14;27.50;99.90
11087;DHT22;5597;47.588;9.642;2023-07-29T10:00:39;27.80;99.90
11087;DHT22;5597;47.588;9.642;2023-07-29T10:03:06;28.00;99.90
11087;DHT22;5597;47.588;9.642;2023-07-29T10:05:32;28.20;99.90
11087;DHT22;5597;47.588;9.642;2023-07-29T10:08:00;28.20;99.90
11087;DHT22;5597;47.588;9.642;2023-07-29T10:10:27;28.10;99.90
11087;DHT22;5597;47.588;9.642;2023-07-29T10:12:54;28.00;99.90
11087;DHT22;5597;47.588;9.642;2023-07-29T10:15:20;28.00;99.90
11087;DHT22;5597;47.588;9.642;2023-07-29T10:17:46;28.10;99.90
11087;DHT22;5597;47.588;9.642;2023-07-29T10:20:12;28.10;99.90
11087;DHT22;5597;47.588;9.642;2023-07-29T10:22:42;28.10;99.90
11087;DHT22;5597;47.588;9.642;2023-07-29T10:25:13;28.00;99.90
11087;DHT22;5597;47.588;9.642;2023-07-29T10:30:12;28.30;99.90
11087;DHT22;5597;47.588;9.642;2023-07-29T10:32:43;28.40;99.90
11087;DHT22;5597;47.588;9.642;2023-07-29T10:35:11;28.40;99.90
11087;DHT22;5597;47.588;9.642;2023-07-29T10:37:37;28.40;99.90
11087;DHT22;5597;47.588;9.642;2023-07-29T10:40:07;28.40;99.90
11087;DHT22;5597;47.588;9.642;2023-07-29T10:42:32;28.40;99.90
11087;DHT22;5597;47.588;9.642;2023-07-29T10:44:58;28.40;99.90
11087;DHT22;5597;47.588;9.642;2023-07-29T10:47:25;28.50;99.90
11087;DHT22;5597;47.588;9.642;2023-07-29T10:49:57;28.60;99.90
11087;DHT22;5597;47.588;9.642;2023-07-29T10:55:02;28.90;99.90
11087;DHT22;5597;47.588;9.642;2023-07-29T10:57:39;29.00;99.90
11087;DHT22;5597;47.588;9.642;2023-07-29T11:00:07;29.30;99.90
11087;DHT22;5597;47.588;9.642;2023-07-29T11:02:37;29.40;99.90
11087;DHT22;5597;47.588;9.642;2023-07-29T11:05:15;29.60;99.90
11087;DHT22;5597;47.588;9.642;2023-07-29T11:08:13;29.80;99.90
11087;DHT22;5597;47.588;9.642;2023-07-29T11:10:43;29.70;99.90
11087;DHT22;5597;47.588;9.642;2023-07-29T11:13:12;29.70;99.90
11087;DHT22;5597;47.588;9.642;2023-07-29T11:15:39;29.80;99.90
11087;DHT22;5597;47.588;9.642;2023-07-29T11:18:05;29.90;99.90
11087;DHT22;5597;47.588;9.642;2023-07-29T11:20:33;30.00;99.90
11087;DHT22;5597;47.588;9.642;2023-07-29T11:23:03;30.20;99.90
11087;DHT22;5597;47.588;9.642;2023-07-29T11:25:30;30.40;99.90
11087;DHT22;5597;47.588;9.642;2023-07-29T11:27:57;30.60;99.90
11087;DHT22;5597;47.588;9.642;2023-07-29T11:30:24;30.80;99.90
11087;DHT22;5597;47.588;9.642;2023-07-29T11:32:53;31.10;99.90
11087;DHT22;5597;47.588;9.642;2023-07-29T11:35:19;31.20;99.90
11087;DHT22;5597;47.588;9.642;2023-07-29T11:37:50;31.30;99.90
11087;DHT22;5597;47.588;9.642;2023-07-29T11:40:17;31.40;99.90
11087;DHT22;5597;47.588;9.642;2023-07-29T11:42:43;31.60;99.90
11087;DHT22;5597;47.588;9.642;2023-07-29T11:45:09;31.80;99.90
11087;DHT22;5597;47.588;9.642;2023-07-29T11:47:35;31.70;99.90
11087;DHT22;5597;47.588;9.642;2023-07-29T11:50:03;31.70;99.90
11087;DHT22;5597;47.588;9.642;2023-07-29T11:52:31;31.60;99.90
11087;DHT22;5597;47.588;9.642;2023-07-29T11:54:58;31.30;99.90
11087;DHT22;5597;47.588;9.642;2023-07-29T11:57:24;30.90;99.90
11087;DHT22;5597;47.588;9.642;2023-07-29T11:59:50;30.50;99.90
11087;DHT22;5597;47.588;9.642;2023-07-29T12:02:17;30.20;99.90
11087;DHT22;5597;47.588;9.642;2023-07-29T12:04:46;30.00;99.90
11087;DHT22;5597;47.588;9.642;2023-07-29T12:07:13;29.90;99.90
11087;DHT22;5597;47.588;9.642;2023-07-29T12:09:40;29.70;99.90
11087;DHT22;5597;47.588;9.642;2023-07-29T12:12:07;29.50;99.90
11087;DHT22;5597;47.588;9.642;2023-07-29T12:14:33;29.30;99.90
11087;DHT22;5597;47.588;9.642;2023-07-29T12:17:00;29.10;99.90
11087;DHT22;5597;47.588;9.642;2023-07-29T12:19:32;28.80;99.90
11087;DHT22;5597;47.588;9.642;2023-07-29T12:21:58;28.50;99.90
11087;DHT22;5597;47.588;9.642;2023-07-29T12:24:24;28.30;99.90
11087;DHT22;5597;47.588;9.642;2023-07-29T12:26:50;28.20;99.90
11087;DHT22;5597;47.588;9.642;2023-07-29T12:29:18;28.20;99.90
11087;DHT22;5597;47.588;9.642;2023-07-29T12:31:47;28.20;99.90
11087;DHT22;5597;47.588;9.642;2023-07-29T12:34:21;28.20;99.90
11087;DHT22;5597;47.588;9.642;2023-07-29T12:36:49;28.20;99.90
11087;DHT22;5597;47.588;9.642;2023-07-29T12:39:30;28.10;99.90
11087;DHT22;5597;47.588;9.642;2023-07-29T12:41:57;28.00;99.90
11087;DHT22;5597;47.588;9.642;2023-07-29T12:44:24;28.00;99.90
11087;DHT22;5597;47.588;9.642;2023-07-29T12:46:50;27.90;99.90
11087;DHT22;5597;47.588;9.642;2023-07-29T12:49:16;28.00;99.90
11087;DHT22;5597;47.588;9.642;2023-07-29T12:51:42;28.00;99.90
11087;DHT22;5597;47.588;9.642;2023-07-29T12:54:08;28.00;99.90
11087;DHT22;5597;47.588;9.642;2023-07-29T12:56:34;27.90;99.90
11087;DHT22;5597;47.588;9.642;2023-07-29T12:59:01;27.70;99.90
11087;DHT22;5597;47.588;9.642;2023-07-29T13:01:27;27.70;99.90
11087;DHT22;5597;47.588;9.642;2023-07-29T13:03:53;27.60;99.90
11087;DHT22;5597;47.588;9.642;2023-07-29T13:06:19;27.60;99.90
11087;DHT22;5597;47.588;9.642;2023-07-29T13:08:45;27.50;99.90
11087;DHT22;5597;47.588;9.642;2023-07-29T13:11:11;27.40;99.90
11087;DHT22;5597;47.588;9.642;2023-07-29T13:13:37;27.30;99.90
11087;DHT22;5597;47.588;9.642;2023-07-29T13:16:03;27.20;99.90
11087;DHT22;5597;47.588;9.642;2023-07-29T13:18:28;27.00;99.90
11087;DHT22;5597;47.588;9.642;2023-07-29T13:20:54;27.00;99.90
11087;DHT22;5597;47.588;9.642;2023-07-29T13:23:21;26.80;99.90
11087;DHT22;5597;47.588;9.642;2023-07-29T13:25:46;26.80;99.90
11087;DHT22;5597;47.588;9.642;2023-07-29T13:28:12;26.80;99.90
11087;DHT22;5597;47.588;9.642;2023-07-29T13:30:39;26.80;99.90
11087;DHT22;5597;47.588;9.642;2023-07-29T13:33:04;26.80;99.90
11087;DHT22;5597;47.588;9.642;2023-07-29T13:35:30;26.70;99.90
11087;DHT22;5597;47.588;9.642;2023-07-29T13:37:56;26.40;99.90
11087;DHT22;5597;47.588;9.642;2023-07-29T13:40:21;26.30;99.90
11087;DHT22;5597;47.588;9.642;2023-07-29T13:42:47;26.10;99.90
11087;DHT22;5597;47.588;9.642;2023-07-29T13:45:12;26.00;99.90
11087;DHT22;5597;47.588;9.642;2023-07-29T13:47:38;25.90;99.90
11087;DHT22;5597;47.588;9.642;2023-07-29T13:50:04;25.90;99.90
11087;DHT22;5597;47.588;9.642;2023-07-29T13:52:30;25.60;99.90
11087;DHT22;5597;47.588;9.642;2023-07-29T13:54:55;25.40;99.90
11087;DHT22;5597;47.588;9.642;2023-07-29T13:57:21;25.20;99.90
11087;DHT22;5597;47.588;9.642;2023-07-29T13:59:46;24.90;99.90
11087;DHT22;5597;47.588;9.642;2023-07-29T14:02:13;24.70;99.90
11087;DHT22;5597;47.588;9.642;2023-07-29T14:04:38;24.60;99.90
11087;DHT22;5597;47.588;9.642;2023-07-29T14:07:04;24.40;99.90
11087;DHT22;5597;47.588;9.642;2023-07-29T14:09:30;24.30;99.90
11087;DHT22;5597;47.588;9.642;2023-07-29T14:11:55;24.10;99.90
11087;DHT22;5597;47.588;9.642;2023-07-29T14:14:21;23.90;99.90
11087;DHT22;5597;47.588;9.642;2023-07-29T14:16:46;23.70;99.90
11087;DHT22;5597;47.588;9.642;2023-07-29T14:19:12;23.60;99.90
11087;DHT22;5597;47.588;9.642;2023-07-29T14:21:38;23.50;99.90
11087;DHT22;5597;47.588;9.642;2023-07-29T14:24:05;23.40;99.90
11087;DHT22;5597;47.588;9.642;2023-07-29T14:26:30;23.30;99.90
11087;DHT22;5597;47.588;9.642;2023-07-29T14:28:56;23.20;99.90
11087;DHT22;5597;47.588;9.642;2023-07-29T14:31:22;23.20;99.90
11087;DHT22;5597;47.588;9.642;2023-07-29T14:33:47;23.10;99.90
11087;DHT22;5597;47.588;9.642;2023-07-29T14:36:15;23.00;99.90
11087;DHT22;5597;47.588;9.642;2023-07-29T14:38:41;22.90;99.90
11087;DHT22;5597;47.588;9.642;2023-07-29T14:41:06;22.80;99.90
11087;DHT22;5597;47.588;9.642;2023-07-29T14:43:32;22.80;99.90
11087;DHT22;5597;47.588;9.642;2023-07-29T14:45:57;22.60;99.90
11087;DHT22;5597;47.588;9.642;2023-07-29T14:48:23;22.40;99.90
11087;DHT22;5597;47.588;9.642;2023-07-29T14:50:49;22.30;99.90
11087;DHT22;5597;47.588;9.642;2023-07-29T14:53:14;22.20;99.90
11087;DHT22;5597;47.588;9.642;2023-07-29T14:55:40;22.10;99.90
11087;DHT22;5597;47.588;9.642;2023-07-29T14:58:06;22.00;99.90
11087;DHT22;5597;47.588;9.642;2023-07-29T15:00:31;22.00;99.90
11087;DHT22;5597;47.588;9.642;2023-07-29T15:02:57;22.00;99.90
11087;DHT22;5597;47.588;9.642;2023-07-29T15:05:23;22.00;99.90
11087;DHT22;5597;47.588;9.642;2023-07-29T15:07:48;22.00;99.90
11087;DHT22;5597;47.588;9.642;2023-07-29T15:10:15;21.90;99.90
11087;DHT22;5597;47.588;9.642;2023-07-29T15:12:44;21.90;99.90
11087;DHT22;5597;47.588;9.642;2023-07-29T15:15:11;21.90;99.90
11087;DHT22;5597;47.588;9.642;2023-07-29T15:17:37;21.80;99.90
11087;DHT22;5597;47.588;9.642;2023-07-29T15:20:03;21.90;99.90
11087;DHT22;5597;47.588;9.642;2023-07-29T15:22:29;21.80;99.90
11087;DHT22;5597;47.588;9.642;2023-07-29T15:24:55;21.80;99.90
11087;DHT22;5597;47.588;9.642;2023-07-29T15:27:20;21.70;99.90
11087;DHT22;5597;47.588;9.642;2023-07-29T15:29:46;21.60;99.90
11087;DHT22;5597;47.588;9.642;2023-07-29T15:32:11;21.60;99.90
11087;DHT22;5597;47.588;9.642;2023-07-29T15:34:37;21.60;99.90
11087;DHT22;5597;47.588;9.642;2023-07-29T15:37:03;21.50;99.90
11087;DHT22;5597;47.588;9.642;2023-07-29T15:39:29;21.40;99.90
11087;DHT22;5597;47.588;9.642;2023-07-29T15:41:54;21.40;99.90
11087;DHT22;5597;47.588;9.642;2023-07-29T15:44:20;21.30;99.90
11087;DHT22;5597;47.588;9.642;2023-07-29T15:46:46;21.20;99.90
11087;DHT22;5597;47.588;9.642;2023-07-29T15:49:11;21.10;99.90